EGXC Airport Information

Runway Information
Runway 07 Length 9003 ft width 200 ft
Elevation 19 ft Threshold 0 ft Heading 72
Runway 25 Length 9003 ft Width 200 ft
Elevation 25 ft Threshold 0 ft Heading 252
Airport Frequencies
Type APP Name APP Frequency 120.8 MHZ
Type APP Name Frequency 282.72 MHZ
Type ATIS Name ATIS Frequency 280.3 MHZ
Type CAC Name CAC Frequency 27.777 MHZ
Type DEP Name DEP Frequency 376.35 MHZ
Type GND Name GND Frequency 122.1 MHZ
Type grn Name Frequency 279.7 MHZ
Type OPS Name OPS Frequency 23.467 MHZ
Type TWR Name TWR Frequency 124.675 MHZ
Airport Navaids
Type TACAN Name Coningsby Frequency 111100 KHZ
Airport Weather Information & NOTAM
ADDS - METARS form results

(0838 UTC 18 July 2018)
 
METAR text: EGXC 180750Z 05002KT CAVOK 19/09 Q1018 BLU NOSIG
Conditions at: EGXC (CONINGSBY RAF , GB) observed 0750 UTC 18 July 2018
Temperature: 19.0°C (66°F)
Dewpoint: 9.0°C (48°F) [RH = 52%]
Pressure (altimeter): 30.06 inches Hg (1018.0 mb)
Winds: from the NE (50 degrees) at 2 MPH (2 knots; 1.0 m/s)
Visibility: 6 or more miles (10+ km)
Ceiling: ceiling and visibility are OK
Clouds: unknown
Weather: no significant weather observed at this time